createdAt,value
2022-12-18T00:01:32.669Z,56.96
2022-12-18T00:04:03.477Z,56.82
2022-12-18T00:06:33.736Z,61.89
2022-12-18T00:09:02.930Z,64.74
2022-12-18T00:11:32.060Z,63.09
2022-12-18T00:14:00.981Z,59.55
2022-12-18T00:16:31.269Z,57.24
2022-12-18T00:19:01.136Z,61.87
2022-12-18T00:21:30.871Z,64.06
2022-12-18T00:24:00.572Z,61.15
2022-12-18T00:26:31.392Z,57.99
2022-12-18T00:29:03.175Z,57.82
2022-12-18T00:31:32.294Z,62.09
2022-12-18T00:34:02.707Z,65.91
2022-12-18T00:36:34.310Z,63.98
2022-12-18T00:39:04.876Z,60.28
2022-12-18T00:41:51.869Z,57.61
2022-12-18T00:44:20.027Z,56.98
2022-12-18T00:46:48.873Z,62.16
2022-12-18T00:49:19.132Z,64.39
2022-12-18T00:51:48.649Z,63.32
2022-12-18T00:54:17.523Z,58.69
2022-12-18T00:56:49.024Z,56.43
2022-12-18T00:59:19.018Z,59.48
2022-12-18T01:01:47.624Z,63.95
2022-12-18T01:04:16.393Z,65.92
2022-12-18T01:06:46.867Z,60.34
2022-12-18T01:09:15.084Z,56.63
2022-12-18T01:11:42.970Z,56.78
2022-12-18T01:14:12.611Z,60.42
2022-12-18T01:16:40.824Z,64.30
2022-12-18T01:19:08.783Z,64.40
2022-12-18T01:21:36.653Z,60.66
2022-12-18T01:24:07.301Z,56.40
2022-12-18T01:26:35.244Z,55.52
2022-12-18T01:29:04.185Z,59.06
2022-12-18T01:31:35.138Z,63.16
2022-12-18T01:34:06.140Z,62.99
2022-12-18T01:36:39.976Z,58.24
2022-12-18T01:39:12.331Z,58.62
2022-12-18T01:42:01.979Z,62.14
2022-12-18T01:44:57.266Z,66.90
2022-12-18T01:47:37.935Z,59.80
2022-12-18T01:50:16.879Z,55.91
2022-12-18T01:52:48.829Z,58.38
2022-12-18T01:55:19.799Z,62.23
2022-12-18T01:57:49.225Z,63.81
2022-12-18T02:00:21.343Z,60.70
2022-12-18T02:02:49.517Z,55.62
2022-12-18T02:05:23.840Z,55.52
2022-12-18T02:07:51.928Z,60.24
2022-12-18T02:10:30.154Z,63.89
2022-12-18T02:13:10.969Z,61.93
2022-12-18T02:15:49.143Z,56.95
2022-12-18T02:18:46.432Z,56.86
2022-12-18T02:21:47.167Z,60.49
2022-12-18T02:24:26.483Z,66.33
2022-12-18T02:27:00.480Z,65.71
2022-12-18T02:29:50.524Z,58.38
2022-12-18T02:32:32.706Z,54.03
2022-12-18T02:35:05.680Z,58.19
2022-12-18T02:37:36.195Z,61.54
2022-12-18T02:40:06.422Z,66.38
2022-12-18T02:42:34.795Z,62.67
2022-12-18T02:45:03.504Z,56.79
2022-12-18T02:47:39.421Z,56.20
2022-12-18T02:50:10.652Z,60.37
2022-12-18T02:53:30.380Z,64.67
2022-12-18T02:56:15.921Z,63.64
2022-12-18T02:58:59.014Z,57.85
2022-12-18T03:02:12.360Z,54.73
2022-12-18T03:05:03.850Z,59.30
2022-12-18T03:07:47.145Z,65.20
2022-12-18T03:10:21.354Z,62.91
2022-12-18T03:12:55.669Z,55.11
2022-12-18T03:15:30.112Z,55.24
2022-12-18T03:18:08.855Z,58.77
2022-12-18T03:20:40.878Z,64.57
2022-12-18T03:23:14.135Z,64.35
2022-12-18T03:25:44.867Z,58.52
2022-12-18T03:28:20.777Z,54.95
2022-12-18T03:31:00.654Z,56.97
2022-12-18T03:33:39.477Z,60.71
2022-12-18T03:36:08.157Z,66.03
2022-12-18T03:38:36.280Z,66.19
2022-12-18T03:41:16.692Z,60.54
2022-12-18T03:44:12.613Z,56.45
2022-12-18T03:46:56.136Z,58.84
2022-12-18T03:49:41.152Z,59.10
2022-12-18T03:52:19.077Z,65.01
2022-12-18T03:54:47.972Z,65.88
2022-12-18T03:57:20.712Z,59.19
2022-12-18T03:59:54.077Z,55.38
2022-12-18T04:02:24.911Z,58.33
2022-12-18T04:04:57.956Z,61.50
2022-12-18T04:07:26.386Z,66.82
2022-12-18T04:09:57.706Z,65.41
2022-12-18T04:12:27.327Z,61.38
2022-12-18T04:14:55.481Z,56.95
2022-12-18T04:17:24.845Z,56.51
2022-12-18T04:19:53.109Z,59.23
2022-12-18T04:22:21.965Z,61.60
2022-12-18T04:24:53.489Z,67.15
2022-12-18T04:27:29.400Z,64.36
2022-12-18T04:30:00.637Z,60.50
2022-12-18T04:32:28.632Z,56.04
2022-12-18T04:34:56.592Z,56.96
2022-12-18T04:37:24.858Z,58.98
2022-12-18T04:39:52.985Z,62.75
2022-12-18T04:42:26.931Z,66.59
2022-12-18T04:44:54.817Z,64.10
2022-12-18T04:47:47.972Z,58.50
2022-12-18T04:50:15.933Z,56.29
2022-12-18T04:52:44.079Z,59.11
2022-12-18T04:55:11.980Z,61.49
2022-12-18T04:57:39.909Z,66.77
2022-12-18T05:00:08.838Z,68.10
2022-12-18T05:02:36.879Z,63.96
2022-12-18T05:05:05.565Z,59.44
2022-12-18T05:07:33.482Z,55.47
2022-12-18T05:10:01.708Z,56.65
2022-12-18T05:12:32.326Z,59.40
2022-12-18T05:15:00.413Z,61.20
2022-12-18T05:17:28.400Z,66.94
2022-12-18T05:19:56.315Z,66.77
2022-12-18T05:22:24.239Z,62.10
2022-12-18T05:24:52.168Z,56.76
2022-12-18T05:27:21.672Z,56.16
2022-12-18T05:29:49.638Z,59.57
2022-12-18T05:32:23.203Z,64.73
2022-12-18T05:34:51.221Z,64.48
2022-12-18T05:37:19.256Z,58.95
2022-12-18T05:39:47.162Z,56.63
2022-12-18T05:42:15.416Z,59.34
2022-12-18T05:44:44.713Z,63.52
2022-12-18T05:47:12.571Z,65.55
2022-12-18T05:49:40.723Z,63.07
2022-12-18T05:52:08.777Z,59.61
2022-12-18T05:54:36.701Z,55.56
2022-12-18T05:57:04.653Z,56.30
2022-12-18T05:59:32.648Z,60.30
2022-12-18T06:02:00.702Z,64.24
2022-12-18T06:04:32.113Z,64.82
2022-12-18T06:07:00.330Z,58.90
2022-12-18T06:09:29.937Z,55.78
2022-12-18T06:11:57.900Z,59.36
2022-12-18T06:14:25.861Z,64.55
2022-12-18T06:16:53.880Z,64.29
2022-12-18T06:19:21.899Z,59.82
2022-12-18T06:21:51.310Z,57.13
2022-12-18T06:24:19.207Z,58.28
2022-12-18T06:26:47.105Z,61.61
2022-12-18T06:29:15.212Z,67.17
2022-12-18T06:31:43.137Z,65.30
2022-12-18T06:34:11.828Z,59.31
2022-12-18T06:36:39.793Z,56.14
2022-12-18T06:39:07.844Z,57.96
2022-12-18T06:41:37.168Z,61.02
2022-12-18T06:44:05.116Z,65.61
2022-12-18T06:46:33.337Z,66.58
2022-12-18T06:49:01.315Z,61.20
2022-12-18T06:51:29.425Z,55.67
2022-12-18T06:53:57.422Z,55.67
2022-12-18T06:56:25.319Z,58.79
2022-12-18T06:58:53.608Z,60.58
2022-12-18T07:01:22.292Z,65.50
2022-12-18T07:03:57.951Z,68.00
2022-12-18T07:06:26.690Z,62.15
2022-12-18T07:08:55.148Z,56.55
2022-12-18T07:11:23.226Z,55.95
2022-12-18T07:13:51.197Z,57.85
2022-12-18T07:16:25.192Z,59.38
2022-12-18T07:18:56.541Z,61.26
2022-12-18T07:21:25.522Z,66.29
2022-12-18T07:23:53.425Z,67.44
2022-12-18T07:26:22.837Z,61.71
2022-12-18T07:28:51.417Z,55.25
2022-12-18T07:31:22.242Z,55.08
2022-12-18T07:33:51.984Z,57.57
2022-12-18T07:36:20.935Z,59.16
2022-12-18T07:38:50.249Z,64.91
2022-12-18T07:41:18.196Z,64.94
2022-12-18T07:43:46.697Z,60.65
2022-12-18T07:46:16.731Z,55.94
2022-12-18T07:48:49.437Z,54.53
2022-12-18T07:51:19.692Z,56.78
2022-12-18T07:53:49.439Z,59.81
2022-12-18T07:56:30.485Z,65.07
2022-12-18T07:59:00.419Z,65.82
2022-12-18T08:01:28.850Z,59.88
2022-12-18T08:03:58.703Z,53.90
2022-12-18T08:06:26.785Z,53.84
2022-12-18T08:08:56.753Z,56.19
2022-12-18T08:11:26.885Z,57.77
2022-12-18T08:13:55.192Z,59.54
2022-12-18T08:16:25.044Z,60.12
2022-12-18T08:18:54.870Z,61.25
2022-12-18T08:21:29.351Z,66.78
2022-12-18T08:24:00.143Z,66.47
2022-12-18T08:26:30.466Z,57.27
2022-12-18T08:28:59.847Z,53.43
2022-12-18T08:31:29.766Z,55.00
2022-12-18T08:33:58.315Z,56.87
2022-12-18T08:36:26.503Z,58.70
2022-12-18T08:38:55.508Z,59.56
2022-12-18T08:41:23.680Z,60.52
2022-12-18T08:44:10.667Z,65.70
2022-12-18T08:46:40.932Z,65.79
2022-12-18T08:49:10.580Z,55.44
2022-12-18T08:51:39.742Z,53.75
2022-12-18T08:54:08.131Z,55.74
2022-12-18T08:56:36.141Z,57.23
2022-12-18T08:59:05.457Z,58.98
2022-12-18T09:01:33.627Z,60.30
2022-12-18T09:04:02.030Z,64.30
2022-12-18T09:06:29.970Z,62.27
2022-12-18T09:08:58.456Z,55.21
2022-12-18T09:11:29.598Z,54.27
2022-12-18T09:13:59.192Z,56.53
2022-12-18T09:16:32.380Z,57.77
2022-12-18T09:19:01.618Z,59.58
2022-12-18T09:21:35.803Z,64.03
2022-12-18T09:24:08.017Z,61.41
2022-12-18T09:26:37.731Z,54.91
2022-12-18T09:29:08.308Z,53.43
2022-12-18T09:31:37.174Z,54.85
2022-12-18T09:34:05.199Z,57.10
2022-12-18T09:36:33.273Z,59.04
2022-12-18T09:39:06.289Z,60.09
2022-12-18T09:41:41.977Z,63.54
2022-12-18T09:44:33.971Z,65.36
2022-12-18T09:47:19.056Z,61.54
2022-12-18T09:49:50.734Z,54.09
2022-12-18T09:52:42.298Z,52.02
2022-12-18T09:55:36.486Z,53.40
2022-12-18T09:58:19.929Z,53.94
2022-12-18T10:00:47.856Z,54.94
2022-12-18T10:03:17.297Z,58.96
2022-12-18T10:05:52.116Z,58.28
2022-12-18T10:08:25.911Z,57.32
2022-12-18T10:10:58.523Z,57.99
2022-12-18T10:13:36.104Z,58.64
2022-12-18T10:16:16.557Z,59.78
2022-12-18T10:19:22.451Z,59.57
2022-12-18T10:22:03.816Z,65.35
2022-12-18T10:25:00.400Z,60.60
2022-12-18T10:27:29.675Z,51.23
2022-12-18T10:29:59.043Z,52.78
2022-12-18T10:32:30.388Z,53.75
2022-12-18T10:35:00.791Z,54.21
2022-12-18T10:37:30.931Z,55.48
2022-12-18T10:40:15.476Z,56.49
2022-12-18T10:43:04.220Z,56.28
2022-12-18T10:45:32.275Z,58.49
2022-12-18T10:48:00.238Z,58.45
2022-12-18T10:51:09.099Z,58.33
2022-12-18T10:53:28.698Z,58.56
2022-12-18T10:55:59.842Z,59.46
2022-12-18T10:58:32.578Z,60.08
2022-12-18T11:01:08.173Z,61.04
2022-12-18T11:03:42.494Z,66.81
2022-12-18T11:06:19.829Z,67.99
2022-12-18T11:09:19.948Z,57.87
2022-12-18T11:11:53.474Z,51.14
2022-12-18T11:14:27.710Z,51.57
2022-12-18T11:17:24.440Z,52.62
2022-12-18T11:19:45.221Z,53.44
2022-12-18T11:22:27.636Z,54.60
2022-12-18T11:25:35.788Z,54.14
2022-12-18T11:28:05.750Z,55.20
2022-12-18T11:30:36.070Z,56.94
2022-12-18T11:33:31.124Z,59.52
2022-12-18T11:36:04.813Z,56.88
2022-12-18T11:38:40.388Z,57.33
2022-12-18T11:41:17.876Z,57.25
2022-12-18T11:43:56.873Z,58.00
2022-12-18T11:46:32.050Z,57.60
2022-12-18T11:49:07.304Z,56.88
2022-12-18T11:52:25.403Z,57.54
2022-12-18T11:54:56.670Z,58.69
2022-12-18T11:57:35.976Z,56.75
2022-12-18T12:00:36.620Z,57.23
2022-12-18T12:03:04.524Z,57.33
2022-12-18T12:05:37.762Z,56.64
2022-12-18T12:08:08.764Z,56.56
2022-12-18T12:11:08.665Z,55.67
2022-12-18T12:13:58.441Z,55.66
2022-12-18T12:16:34.638Z,56.54
2022-12-18T12:19:20.763Z,58.22
2022-12-18T12:22:05.076Z,56.71
2022-12-18T12:25:09.335Z,56.51
2022-12-18T12:28:08.184Z,58.33
2022-12-18T12:30:45.188Z,58.75
2022-12-18T12:33:34.830Z,58.52
2022-12-18T12:36:27.079Z,56.60
2022-12-18T12:39:06.463Z,55.32
2022-12-18T12:41:55.303Z,56.67
2022-12-18T12:44:28.605Z,54.77
2022-12-18T12:47:01.114Z,54.90
2022-12-18T12:52:35.943Z,54.99
2022-12-18T12:55:14.441Z,55.46
2022-12-18T12:57:47.416Z,55.52
2022-12-18T13:00:25.299Z,55.81
2022-12-18T13:03:05.378Z,56.36
2022-12-18T13:05:55.047Z,56.20
2022-12-18T13:08:25.430Z,56.16
2022-12-18T13:11:17.109Z,56.60
2022-12-18T13:13:43.500Z,55.28
2022-12-18T13:13:56.656Z,57.02
2022-12-18T13:16:26.815Z,57.47
2022-12-18T13:18:59.900Z,57.62
2022-12-18T13:21:32.061Z,56.83
2022-12-18T13:24:32.559Z,56.43
2022-12-18T13:27:00.524Z,53.97
2022-12-18T13:29:43.176Z,52.27
2022-12-18T13:32:22.948Z,50.49
2022-12-18T13:35:23.070Z,48.33
2022-12-18T13:37:54.358Z,47.11
2022-12-18T13:40:41.643Z,45.08
2022-12-18T13:43:18.670Z,43.51
2022-12-18T13:46:02.895Z,42.09
2022-12-18T13:48:36.615Z,40.54
2022-12-18T13:51:08.069Z,40.09
2022-12-18T13:53:58.571Z,40.55
2022-12-18T13:56:30.877Z,40.11
2022-12-18T13:59:34.892Z,39.53
2022-12-18T14:02:17.978Z,39.58
2022-12-18T14:04:48.059Z,39.98
2022-12-18T14:07:17.867Z,40.45
2022-12-18T14:09:55.645Z,40.30
2022-12-18T14:12:54.706Z,39.97
2022-12-18T14:15:35.126Z,40.38
2022-12-18T14:18:24.532Z,41.39
2022-12-18T14:20:55.854Z,42.28
2022-12-18T14:23:42.292Z,43.37
2022-12-18T14:26:46.520Z,43.77
2022-12-18T14:29:28.913Z,44.34
2022-12-18T14:32:17.890Z,45.56
2022-12-18T14:34:50.650Z,46.29
2022-12-18T14:37:23.599Z,47.57
2022-12-18T14:40:10.520Z,48.60
2022-12-18T14:42:39.159Z,49.60
2022-12-18T14:45:44.363Z,51.17
2022-12-18T14:48:12.564Z,51.41
2022-12-18T14:50:42.025Z,53.09
2022-12-18T14:53:34.004Z,54.17
2022-12-18T14:56:14.849Z,54.83
2022-12-18T14:58:53.289Z,55.99
2022-12-18T15:01:35.289Z,57.43
2022-12-18T15:04:04.778Z,58.22
2022-12-18T15:06:38.284Z,59.12
2022-12-18T15:09:25.238Z,59.65
2022-12-18T15:12:01.408Z,60.27
2022-12-18T15:14:39.818Z,61.24
2022-12-18T15:17:19.074Z,62.18
2022-12-18T15:19:49.196Z,65.86
2022-12-18T15:22:30.716Z,66.19
2022-12-18T15:25:04.202Z,65.62
2022-12-18T15:27:38.972Z,61.11
2022-12-18T15:30:09.979Z,57.19
2022-12-18T15:32:39.476Z,56.99
2022-12-18T15:35:15.785Z,53.00
2022-12-18T15:37:44.738Z,49.31
2022-12-18T15:40:20.171Z,47.76
2022-12-18T15:43:07.782Z,47.55
2022-12-18T15:45:36.937Z,48.26
2022-12-18T15:48:22.003Z,44.02
2022-12-18T15:50:55.282Z,40.60
2022-12-18T15:53:24.745Z,41.24
2022-12-18T15:56:11.198Z,43.81
2022-12-18T15:58:40.521Z,46.41
2022-12-18T16:01:10.523Z,48.54
2022-12-18T16:03:39.102Z,50.05
2022-12-18T16:06:10.350Z,51.81
2022-12-18T16:08:38.348Z,54.27
2022-12-18T16:11:39.407Z,56.78
2022-12-18T16:14:21.553Z,64.10
2022-12-18T16:16:53.689Z,62.17
2022-12-18T16:19:22.678Z,56.76
2022-12-18T16:21:53.202Z,54.28
2022-12-18T16:24:30.480Z,51.51
2022-12-18T16:27:24.618Z,50.62
2022-12-18T16:29:52.537Z,49.12
2022-12-18T16:32:24.541Z,47.74
2022-12-18T16:34:52.753Z,47.02
2022-12-18T16:37:20.800Z,46.67
2022-12-18T16:39:48.778Z,46.65
2022-12-18T16:42:45.301Z,46.24
2022-12-18T16:45:16.405Z,46.84
2022-12-18T16:47:44.881Z,46.78
2022-12-18T16:50:13.165Z,47.28
2022-12-18T16:52:44.041Z,47.59
2022-12-18T16:55:12.030Z,47.32
2022-12-18T16:57:40.011Z,47.06
2022-12-18T17:00:09.813Z,46.59
2022-12-18T17:02:37.959Z,46.35
2022-12-18T17:05:06.424Z,46.64
2022-12-18T17:07:34.511Z,46.40
2022-12-18T17:10:06.733Z,45.03
2022-12-18T17:12:34.737Z,44.95
2022-12-18T17:15:03.252Z,45.34
2022-12-18T17:17:31.294Z,45.69
2022-12-18T17:19:59.641Z,45.22
2022-12-18T17:22:28.205Z,45.32
2022-12-18T17:24:56.456Z,46.94
2022-12-18T17:27:24.396Z,53.47
2022-12-18T17:29:52.322Z,51.56
2022-12-18T17:32:20.223Z,49.35
2022-12-18T17:34:48.486Z,45.23
2022-12-18T17:37:16.513Z,47.37
2022-12-18T17:39:44.605Z,50.43
2022-12-18T17:42:15.317Z,56.42
2022-12-18T17:44:44.376Z,58.61
2022-12-18T17:47:15.354Z,59.49
2022-12-18T17:49:43.283Z,62.07
2022-12-18T17:52:11.458Z,65.71
2022-12-18T17:54:42.055Z,64.70
2022-12-18T17:57:12.120Z,56.10
2022-12-18T17:59:43.711Z,55.65
2022-12-18T18:02:12.300Z,58.34
2022-12-18T18:04:40.609Z,60.61
2022-12-18T18:07:17.971Z,64.87
2022-12-18T18:09:46.321Z,64.84
2022-12-18T18:12:32.627Z,58.15
2022-12-18T18:15:00.588Z,53.57
2022-12-18T18:17:28.970Z,56.03
2022-12-18T18:19:58.939Z,59.33
2022-12-18T18:22:27.141Z,62.63
2022-12-18T18:24:55.490Z,65.94
2022-12-18T18:27:23.644Z,61.18
2022-12-18T18:29:51.768Z,61.57
2022-12-18T18:32:19.750Z,57.60
2022-12-18T18:34:49.816Z,53.32
2022-12-18T18:37:18.105Z,50.61
2022-12-18T18:39:46.171Z,50.18
2022-12-18T18:42:14.947Z,48.95
2022-12-18T18:44:48.604Z,48.33
2022-12-18T18:47:24.186Z,48.16
2022-12-18T18:49:52.203Z,48.23
2022-12-18T18:52:20.193Z,48.33
2022-12-18T18:55:11.787Z,47.61
2022-12-18T18:57:37.341Z,47.48
2022-12-18T19:00:09.956Z,47.22
2022-12-18T19:02:52.163Z,47.60
2022-12-18T19:05:33.140Z,47.07
2022-12-18T19:08:01.303Z,46.64
2022-12-18T19:10:29.887Z,46.35
2022-12-18T19:13:17.512Z,46.77
2022-12-18T19:15:46.069Z,47.12
2022-12-18T19:18:14.932Z,46.95
2022-12-18T19:20:43.122Z,46.70
2022-12-18T19:23:11.066Z,46.50
2022-12-18T19:25:42.698Z,47.10
2022-12-18T19:28:19.282Z,47.67
2022-12-18T19:30:55.374Z,47.40
2022-12-18T19:33:45.207Z,47.13
2022-12-18T19:36:23.016Z,47.26
2022-12-18T19:38:53.567Z,46.88
2022-12-18T19:41:25.638Z,47.03
2022-12-18T19:43:55.592Z,47.05
2022-12-18T19:46:24.599Z,46.60
2022-12-18T19:48:54.900Z,46.72
2022-12-18T19:51:29.856Z,46.58
2022-12-18T19:54:01.635Z,46.88
2022-12-18T19:56:35.087Z,46.75
2022-12-18T19:59:04.945Z,46.43
2022-12-18T20:01:35.962Z,46.24
2022-12-18T20:04:04.464Z,46.17
2022-12-18T20:06:53.389Z,46.64
2022-12-18T20:09:24.904Z,46.96
2022-12-18T20:11:56.124Z,46.22
2022-12-18T20:14:24.177Z,46.25
2022-12-18T20:16:53.765Z,45.81
2022-12-18T20:19:22.687Z,45.27
2022-12-18T20:21:51.240Z,45.22
2022-12-18T20:24:21.926Z,45.73
2022-12-18T20:26:49.988Z,45.86
2022-12-18T20:29:20.689Z,45.98
2022-12-18T20:31:48.720Z,46.09
2022-12-18T20:34:16.978Z,46.20
2022-12-18T20:36:49.261Z,46.12
2022-12-18T20:39:17.995Z,46.39
2022-12-18T20:41:47.266Z,45.95
2022-12-18T20:44:22.372Z,46.16
2022-12-18T20:47:03.358Z,46.34
2022-12-18T20:49:36.490Z,46.70
2022-12-18T20:52:06.177Z,46.54
2022-12-18T20:54:34.140Z,46.43
2022-12-18T20:57:03.839Z,46.43
2022-12-18T20:59:31.808Z,46.58
2022-12-18T21:01:59.960Z,46.48
2022-12-18T21:04:31.100Z,45.94
2022-12-18T21:07:02.645Z,46.10
2022-12-18T21:09:37.610Z,45.81
2022-12-18T21:12:42.550Z,45.94
2022-12-18T21:15:22.847Z,45.69
2022-12-18T21:17:54.891Z,45.45
2022-12-18T21:20:23.093Z,45.69
2022-12-18T21:22:51.535Z,45.82
2022-12-18T21:25:21.910Z,45.37
2022-12-18T21:27:49.929Z,45.41
2022-12-18T21:30:18.002Z,45.56
2022-12-18T21:32:46.074Z,45.32
2022-12-18T21:35:14.132Z,45.32
2022-12-18T21:37:42.133Z,45.23
2022-12-18T21:40:10.664Z,46.05
2022-12-18T21:42:57.454Z,45.78
2022-12-18T21:45:25.538Z,46.05
2022-12-18T21:47:53.488Z,45.93
2022-12-18T21:50:21.478Z,45.72
2022-12-18T21:52:49.495Z,46.03
2022-12-18T21:55:17.470Z,45.97
2022-12-18T21:57:45.528Z,45.54
2022-12-18T22:00:17.461Z,44.91
2022-12-18T22:02:49.138Z,45.46
2022-12-18T22:05:37.151Z,45.22
2022-12-18T22:08:06.942Z,44.93
2022-12-18T22:10:36.025Z,44.66
2022-12-18T22:13:05.777Z,44.23
2022-12-18T22:15:33.964Z,44.12
2022-12-18T22:18:02.079Z,43.99
2022-12-18T22:20:30.254Z,44.45
2022-12-18T22:22:59.504Z,44.74
2022-12-18T22:25:30.801Z,44.84
2022-12-18T22:28:17.081Z,45.69
2022-12-18T22:30:45.072Z,45.99
2022-12-18T22:33:13.105Z,46.16
2022-12-18T22:36:07.572Z,46.20
2022-12-18T22:38:35.549Z,46.59
2022-12-18T22:41:03.510Z,46.69
2022-12-18T22:43:31.448Z,47.09
2022-12-18T22:46:03.142Z,46.95
2022-12-18T22:48:31.105Z,46.91
2022-12-18T22:50:59.707Z,46.59
2022-12-18T22:53:27.786Z,46.46
2022-12-18T22:56:03.636Z,46.46
2022-12-18T22:58:31.622Z,46.52
2022-12-18T23:00:59.557Z,45.91
2022-12-18T23:03:28.188Z,45.90
2022-12-18T23:06:03.383Z,45.65
2022-12-18T23:08:31.883Z,45.53
2022-12-18T23:11:00.574Z,44.49
2022-12-18T23:13:29.056Z,44.51
2022-12-18T23:15:57.044Z,44.82
2022-12-18T23:18:25.188Z,43.54
2022-12-18T23:20:53.071Z,43.42
2022-12-18T23:23:21.109Z,43.59
2022-12-18T23:25:49.022Z,42.57
2022-12-18T23:28:16.932Z,41.75
2022-12-18T23:30:44.827Z,42.33
2022-12-18T23:33:12.726Z,42.69
2022-12-18T23:35:40.839Z,42.99
2022-12-18T23:38:08.830Z,42.94
2022-12-18T23:40:37.872Z,42.80
2022-12-18T23:43:05.939Z,42.38
2022-12-18T23:45:37.691Z,42.43
2022-12-18T23:48:05.728Z,42.55
2022-12-18T23:50:35.725Z,42.02
2022-12-18T23:53:05.580Z,41.91
2022-12-18T23:55:39.520Z,42.23
2022-12-18T23:58:14.981Z,41.72
